Time;durP1;ratioP1;P1;durP2;ratioP2;P2;SDS_P1;SDS_P2;PMS_P1;PMS_P2;Temp;Humidity;BMP_temperature;BMP_pressure;BME280_temperature;BME280_humidity;BME280_pressure;Samples;Min_cycle;Max_cycle;Signal;HPM_P1;HPM_P2
2023/01/20 00:01:37;;;;;;;6.65;0.90;;;;;;;15.35;44.00;98597.56;3154685;28;20062;-73
2023/01/20 00:03:09;;;;;;;4.72;0.77;;;;;;;15.43;43.57;98606.47;3145965;28;20056;-73
2023/01/20 00:04:41;;;;;;;5.00;0.80;;;;;;;15.52;43.55;98598.78;3157356;28;20067;-73
2023/01/20 00:06:13;;;;;;;7.10;1.00;;;;;;;15.58;43.50;98603.50;3158759;28;20059;-73
2023/01/20 00:07:45;;;;;;;4.38;0.80;;;;;;;15.60;43.18;98594.53;3158464;28;20052;-73
2023/01/20 00:09:18;;;;;;;4.72;0.80;;;;;;;15.64;43.36;98610.84;3158673;28;20398;-73
2023/01/20 00:10:50;;;;;;;4.53;0.90;;;;;;;15.63;43.26;98596.91;3149274;28;20056;-73
2023/01/20 00:12:22;;;;;;;4.45;0.68;;;;;;;15.67;43.44;98573.84;3153445;28;20132;-73
2023/01/20 00:13:55;;;;;;;13.93;1.40;;;;;;;15.69;43.35;98540.47;3158616;28;20109;-73
2023/01/20 00:15:26;;;;;;;9.68;1.10;;;;;;;15.68;43.50;98563.25;3158887;28;20052;-73
2023/01/20 00:16:59;;;;;;;6.38;0.70;;;;;;;15.69;43.38;98564.91;3158347;28;20180;-73
2023/01/20 00:18:31;;;;;;;8.23;1.27;;;;;;;15.68;43.11;98558.03;3158068;28;20059;-73
2023/01/20 00:20:04;;;;;;;5.57;1.05;;;;;;;15.72;42.80;98555.13;3158629;28;20043;-73
2023/01/20 00:21:36;;;;;;;5.65;1.08;;;;;;;15.73;42.65;98589.09;3158271;28;20051;-73
2023/01/20 00:23:08;;;;;;;7.40;1.17;;;;;;;15.77;42.66;98589.69;3158263;28;20436;-73
2023/01/20 00:24:40;;;;;;;4.53;0.65;;;;;;;15.78;42.23;98602.66;3158477;28;20055;-73
2023/01/20 00:26:12;;;;;;;4.60;0.70;;;;;;;15.84;42.24;98627.56;3161323;28;20575;-72
2023/01/20 00:27:45;;;;;;;7.03;0.60;;;;;;;15.89;42.11;98633.25;3158606;28;20048;-73
2023/01/20 00:29:17;;;;;;;9.35;0.80;;;;;;;15.91;42.43;98623.44;3158424;28;20052;-73
2023/01/20 00:30:49;;;;;;;5.20;0.77;;;;;;;15.87;42.73;98617.63;3158465;28;20090;-72
2023/01/20 00:32:21;;;;;;;3.40;0.50;;;;;;;15.86;42.86;98630.91;3146008;28;20052;-73
2023/01/20 00:33:55;;;;;;;2.40;0.52;;;;;;;15.88;43.09;98644.69;3157559;28;20044;-73
2023/01/20 00:35:27;;;;;;;5.25;0.90;;;;;;;15.87;43.30;98622.06;3157516;28;20044;-73
2023/01/20 00:36:59;;;;;;;5.70;0.90;;;;;;;15.82;43.22;98621.59;3157669;28;20055;-73
2023/01/20 00:38:30;;;;;;;2.90;0.90;;;;;;;15.78;43.12;98609.72;3158717;28;20056;-72
2023/01/20 00:40:01;;;;;;;4.05;0.98;;;;;;;15.77;43.13;98606.28;3158253;28;20524;-72
2023/01/20 00:41:34;;;;;;;4.20;0.90;;;;;;;15.74;43.31;98592.59;3157771;28;20048;-73
2023/01/20 00:43:06;;;;;;;3.10;0.60;;;;;;;15.74;43.58;98605.69;3158027;28;20050;-72
2023/01/20 00:44:39;;;;;;;7.60;1.00;;;;;;;15.73;43.74;98638.97;3158547;28;20105;-72
2023/01/20 00:46:11;;;;;;;5.50;1.05;;;;;;;15.68;44.00;98636.75;3158043;28;20352;-72
2023/01/20 00:47:43;;;;;;;8.73;1.00;;;;;;;15.71;43.74;98625.16;3158171;28;20448;-73
2023/01/20 00:49:15;;;;;;;8.18;0.88;;;;;;;15.66;43.53;98651.75;3156779;28;20097;-73
2023/01/20 00:50:46;;;;;;;7.68;1.02;;;;;;;15.70;43.39;98620.84;3157668;28;20044;-73
2023/01/20 00:52:18;;;;;;;4.93;0.57;;;;;;;15.71;43.22;98591.03;3151444;28;20044;-73
2023/01/20 00:53:50;;;;;;;6.57;1.08;;;;;;;15.72;43.27;98578.75;3158273;28;20059;-74
2023/01/20 00:55:22;;;;;;;6.20;0.63;;;;;;;15.70;43.35;98578.88;3158069;28;20081;-73
2023/01/20 00:56:54;;;;;;;6.18;0.85;;;;;;;15.71;42.39;98612.03;3157753;28;20059;-73
2023/01/20 00:58:25;;;;;;;6.07;0.90;;;;;;;15.78;42.30;98635.97;3158243;28;20071;-73
2023/01/20 00:59:58;;;;;;;6.75;1.00;;;;;;;15.88;41.80;98623.69;3157910;28;20055;-74
2023/01/20 01:01:30;;;;;;;12.77;1.38;;;;;;;15.97;41.36;98669.34;3158141;28;20086;-73
2023/01/20 01:03:01;;;;;;;4.72;0.80;;;;;;;16.02;41.31;98646.97;3155370;28;20056;-74
2023/01/20 01:04:33;;;;;;;5.00;0.85;;;;;;;16.05;41.49;98656.41;3147468;28;20137;-73
2023/01/20 01:06:10;;;;;;;7.97;1.05;;;;;;;16.06;41.63;98642.28;3157619;28;20076;-73
2023/01/20 01:07:41;;;;;;;8.93;1.85;;;;;;;16.03;42.11;98629.44;3158138;28;20117;-72
2023/01/20 01:09:13;;;;;;;6.25;0.93;;;;;;;16.00;42.05;98617.41;3157534;28;20096;-72
2023/01/20 01:10:44;;;;;;;2.88;0.60;;;;;;;16.00;41.50;98664.69;3157430;28;20048;-73
2023/01/20 01:12:15;;;;;;;5.28;0.88;;;;;;;16.06;41.33;98668.56;3157666;28;20095;-73
2023/01/20 01:13:47;;;;;;;5.78;0.90;;;;;;;16.10;41.10;98676.06;3157861;28;20109;-72
2023/01/20 01:15:20;;;;;;;7.78;1.10;;;;;;;16.16;41.33;98695.72;3157569;28;20645;-73
2023/01/20 01:16:52;;;;;;;6.22;0.93;;;;;;;16.17;41.29;98693.91;3157658;28;20168;-73
2023/01/20 01:18:23;;;;;;;5.00;0.70;;;;;;;16.17;41.19;98689.47;3157159;28;20048;-73
2023/01/20 01:19:55;;;;;;;7.95;1.13;;;;;;;16.21;41.41;98697.91;3157831;28;20044;-72
2023/01/20 01:21:27;;;;;;;4.45;0.90;;;;;;;16.20;41.43;98699.72;3157900;28;20048;-72
2023/01/20 01:22:58;;;;;;;3.15;0.50;;;;;;;16.20;41.55;98698.91;3157376;28;20105;-73
2023/01/20 01:24:30;;;;;;;4.13;1.08;;;;;;;16.20;41.38;98699.72;3157598;28;20044;-73
2023/01/20 01:26:02;;;;;;;4.35;0.85;;;;;;;16.17;41.66;98713.13;3160302;28;20047;-72
2023/01/20 01:27:33;;;;;;;4.88;0.57;;;;;;;16.16;41.68;98703.59;3157602;28;20052;-73
2023/01/20 01:29:05;;;;;;;6.28;0.52;;;;;;;16.18;41.90;98695.56;3157522;28;20047;-73
2023/01/20 01:30:37;;;;;;;4.25;1.00;;;;;;;16.15;41.86;98684.38;3157454;28;20112;-73
2023/01/20 01:32:09;;;;;;;2.00;0.80;;;;;;;16.08;41.71;98677.97;3157011;28;20146;-73
2023/01/20 01:33:42;;;;;;;3.55;0.60;;;;;;;16.17;41.85;98705.25;3157268;28;20173;-73
2023/01/20 01:35:13;;;;;;;3.13;0.73;;;;;;;16.17;41.76;98728.06;3157333;28;20082;-73
2023/01/20 01:36:45;;;;;;;2.55;0.50;;;;;;;16.17;41.69;98734.13;3157590;28;20044;-72
2023/01/20 01:38:16;;;;;;;3.72;0.95;;;;;;;16.19;41.49;98736.66;3157282;28;20051;-72
2023/01/20 01:39:48;;;;;;;3.97;0.90;;;;;;;16.15;41.60;98736.91;3157381;28;20076;-73
2023/01/20 01:41:20;;;;;;;3.33;0.57;;;;;;;16.18;41.56;98737.59;3157243;28;20113;-72
2023/01/20 01:42:51;;;;;;;6.40;1.38;;;;;;;16.18;41.64;98732.34;3156811;28;20586;-72
2023/01/20 01:44:25;;;;;;;4.82;0.80;;;;;;;16.19;41.52;98715.63;3156795;28;20138;-73
2023/01/20 01:45:59;;;;;;;3.30;0.75;;;;;;;16.19;41.48;98684.09;3149622;28;20040;-72
2023/01/20 01:47:30;;;;;;;6.82;0.55;;;;;;;16.20;41.59;98675.25;3156620;28;20055;-73
2023/01/20 01:49:08;;;;;;;7.40;0.65;;;;;;;16.20;41.48;98673.44;3156748;28;20409;-73
2023/01/20 01:50:45;;;;;;;2.75;0.65;;;;;;;16.19;41.55;98676.22;3157207;28;20511;-72
2023/01/20 01:52:17;;;;;;;3.85;0.93;;;;;;;16.15;41.90;98697.50;3150920;28;20071;-73
2023/01/20 01:53:53;;;;;;;6.65;0.60;;;;;;;16.14;41.99;98698.44;3157604;28;20057;-72
2023/01/20 01:55:29;;;;;;;2.45;0.73;;;;;;;16.12;41.85;98699.56;3156915;28;20060;-73
2023/01/20 01:57:01;;;;;;;2.05;0.50;;;;;;;16.08;42.03;98704.22;3157140;28;20052;-73
2023/01/20 01:58:37;;;;;;;3.97;0.73;;;;;;;16.09;42.13;98682.28;3157253;28;20113;-73
2023/01/20 02:00:09;;;;;;;5.25;1.00;;;;;;;16.06;42.30;98668.56;3151020;28;20056;-73
2023/01/20 02:01:46;;;;;;;4.65;0.77;;;;;;;16.02;42.55;98670.63;3147641;28;20052;-73
2023/01/20 02:03:19;;;;;;;3.58;1.00;;;;;;;15.98;42.87;98671.84;3147863;28;20062;-73
2023/01/20 02:04:50;;;;;;;13.77;1.45;;;;;;;15.95;42.99;98656.38;3147381;28;20056;-73
2023/01/20 02:06:24;;;;;;;6.30;0.80;;;;;;;15.88;43.36;98665.72;3147787;28;20358;-73
2023/01/20 02:07:57;;;;;;;4.82;0.50;;;;;;;15.82;43.70;98680.19;3147604;28;20063;-73
2023/01/20 02:09:30;;;;;;;5.80;0.63;;;;;;;15.75;44.06;98672.97;3147056;28;20064;-73
2023/01/20 02:11:02;;;;;;;4.30;0.70;;;;;;;15.66;44.62;98674.53;3146749;28;20550;-72
2023/01/20 02:12:34;;;;;;;3.30;0.35;;;;;;;15.54;45.22;98689.53;3147113;28;20139;-72
2023/01/20 02:14:07;;;;;;;3.33;0.30;;;;;;;15.43;45.70;98702.69;3148020;28;20056;-72
2023/01/20 02:15:44;;;;;;;0.88;0.20;;;;;;;15.35;45.89;98703.34;3148275;28;20153;-72
2023/01/20 02:17:25;;;;;;;0.52;0.30;;;;;;;15.27;46.40;98697.06;3147084;28;20060;-73
2023/01/20 02:19:13;;;;;;;1.60;0.10;;;;;;;15.18;46.80;98699.47;3144528;28;20132;-73
2023/01/20 02:21:24;;;;;;;2.38;0.20;;;;;;;15.00;47.35;98698.34;3148441;28;20068;-72
2023/01/20 02:23:01;;;;;;;3.40;0.20;;;;;;;14.86;48.10;98699.47;3134825;28;20052;-72
2023/01/20 02:24:58;;;;;;;2.40;0.20;;;;;;;14.78;48.31;98700.06;3146808;28;20074;-72
2023/01/20 02:26:47;;;;;;;1.13;0.57;;;;;;;14.69;48.81;98687.69;3149170;28;20113;-72
2023/01/20 02:28:49;;;;;;;2.25;0.15;;;;;;;14.63;48.86;98682.94;3147021;28;20497;-72
2023/01/20 02:30:49;;;;;;;0.50;0.20;;;;;;;14.53;49.33;98687.25;3147937;28;20576;-72
2023/01/20 02:32:38;;;;;;;3.30;0.30;;;;;;;14.43;49.67;98689.72;3138696;28;20661;-72
2023/01/20 02:34:16;;;;;;;1.70;0.20;;;;;;;14.39;50.01;98696.16;3147481;28;20051;-72
2023/01/20 02:35:54;;;;;;;3.95;0.40;;;;;;;14.31;50.39;98683.66;3147003;28;20117;-72
2023/01/20 02:37:28;;;;;;;0.30;0.13;;;;;;;14.21;50.95;98701.06;3147449;28;20817;-72
2023/01/20 02:39:07;;;;;;;1.27;0.20;;;;;;;14.14;51.29;98714.72;3147148;28;20052;-71
2023/01/20 02:40:48;;;;;;;6.38;0.35;;;;;;;14.04;51.61;98722.47;3146261;28;20138;-73
2023/01/20 02:42:24;;;;;;;1.17;0.22;;;;;;;13.97;52.19;98713.44;3136643;28;20419;-72
2023/01/20 02:44:00;;;;;;;4.13;0.15;;;;;;;13.83;52.46;98694.38;3147259;28;20165;-74
2023/01/20 02:45:42;;;;;;;1.25;0.45;;;;;;;13.84;52.74;98693.44;3147504;28;20054;-72
2023/01/20 02:47:19;;;;;;;1.00;0.40;;;;;;;13.77;53.29;98689.59;3147394;28;20101;-72
2023/01/20 02:48:56;;;;;;;1.05;0.30;;;;;;;13.68;54.17;98711.22;3146415;28;20077;-73
2023/01/20 02:50:37;;;;;;;1.05;0.20;;;;;;;13.47;54.69;98705.00;3147513;28;20554;-72
2023/01/20 02:52:13;;;;;;;0.82;0.20;;;;;;;13.51;54.76;98704.63;3140593;28;20230;-72
2023/01/20 02:53:48;;;;;;;1.30;0.15;;;;;;;13.52;54.95;98679.34;3147711;28;20109;-72
2023/01/20 02:55:29;;;;;;;1.85;0.10;;;;;;;13.52;54.77;98674.94;3147065;28;20044;-72
2023/01/20 02:57:04;;;;;;;1.02;0.20;;;;;;;13.43;55.39;98678.25;3148206;28;20105;-72
2023/01/20 02:58:42;;;;;;;0.85;0.30;;;;;;;13.46;55.13;98695.47;3147424;28;20056;-73
2023/01/20 03:00:18;;;;;;;0.60;0.20;;;;;;;13.52;54.91;98726.41;3149518;28;20051;-73
2023/01/20 03:01:54;;;;;;;1.23;0.38;;;;;;;13.50;55.09;98721.28;3149608;28;20816;-73
2023/01/20 03:03:33;;;;;;;0.57;0.20;;;;;;;13.42;55.69;98706.16;3149379;28;20136;-72
2023/01/20 03:05:10;;;;;;;2.58;0.50;;;;;;;13.31;56.37;98713.97;3149224;28;20052;-72
2023/01/20 03:06:46;;;;;;;3.10;0.40;;;;;;;13.23;56.61;98715.47;3150425;28;20502;-72
2023/01/20 03:08:20;;;;;;;2.35;0.40;;;;;;;13.25;56.69;98726.63;3150632;28;20480;-72
2023/01/20 03:09:56;;;;;;;5.65;0.47;;;;;;;13.22;56.71;98738.13;3149925;28;20059;-72
2023/01/20 03:11:32;;;;;;;2.67;0.38;;;;;;;13.19;56.97;98735.75;3150483;28;20056;-72
2023/01/20 03:13:09;;;;;;;4.78;0.47;;;;;;;13.09;57.42;98716.47;3146460;28;20059;-73
2023/01/20 03:14:40;;;;;;;5.95;0.63;;;;;;;12.98;57.98;98717.22;3139515;28;20105;-73
2023/01/20 03:16:17;;;;;;;1.38;0.20;;;;;;;12.95;58.55;98739.22;3150173;28;20521;-73
2023/01/20 03:17:49;;;;;;;10.60;0.93;;;;;;;12.90;58.66;98750.94;3150585;28;20056;-74
2023/01/20 03:19:21;;;;;;;0.77;0.22;;;;;;;12.90;58.49;98730.03;3150556;28;20075;-73
2023/01/20 03:20:55;;;;;;;0.50;0.10;;;;;;;12.87;59.39;98710.19;3150616;28;20147;-74
2023/01/20 03:22:29;;;;;;;1.83;0.35;;;;;;;12.76;60.05;98702.28;3149449;28;20067;-73
2023/01/20 03:24:03;;;;;;;1.75;0.30;;;;;;;12.64;60.77;98696.13;3148183;28;20504;-74
2023/01/20 03:25:37;;;;;;;1.92;0.40;;;;;;;12.55;61.06;98707.25;3149060;28;20113;-73
2023/01/20 03:27:11;;;;;;;1.70;0.30;;;;;;;12.47;61.18;98707.78;3150754;28;20587;-73
2023/01/20 03:28:44;;;;;;;;;;;;;;;12.42;60.86;98715.13;3150448;28;20071;-73
2023/01/20 03:30:17;;;;;;;5.13;0.38;;;;;;;12.39;61.14;98717.91;3149275;28;20022;-73
2023/01/20 03:31:53;;;;;;;3.88;0.40;;;;;;;12.44;61.33;98721.03;3149963;28;20059;-76
2023/01/20 03:33:26;;;;;;;2.08;0.50;;;;;;;12.45;61.37;98709.69;3150613;28;20179;-75
2023/01/20 03:34:59;;;;;;;1.05;0.30;;;;;;;12.44;61.40;98710.59;3150063;28;20280;-72
2023/01/20 03:36:34;;;;;;;2.97;0.35;;;;;;;12.40;61.80;98721.38;3147840;28;20246;-74
2023/01/20 03:38:06;;;;;;;4.20;1.00;;;;;;;12.37;62.12;98714.59;3149373;28;20090;-74
2023/01/20 03:39:39;;;;;;;5.10;0.40;;;;;;;12.38;62.13;98710.19;3149494;28;20048;-74
2023/01/20 03:41:16;;;;;;;;;;;;;;;12.31;61.80;98716.81;3150588;28;20079;-74
2023/01/20 03:42:55;;;;;;;2.75;0.40;;;;;;;12.25;62.47;98712.84;3149916;28;19924;-74
2023/01/20 03:44:37;;;;;;;5.88;0.50;;;;;;;12.18;62.90;98701.97;3149925;28;20056;-74
2023/01/20 03:46:18;;;;;;;1.25;0.32;;;;;;;12.13;63.35;98701.47;3148709;28;20044;-73
2023/01/20 03:47:58;;;;;;;3.80;0.50;;;;;;;12.11;63.51;98700.72;3148872;28;20109;-73
2023/01/20 03:49:37;;;;;;;2.90;0.50;;;;;;;12.11;63.22;98694.69;3147020;28;20060;-74
2023/01/20 03:51:18;;;;;;;1.52;0.40;;;;;;;12.11;63.53;98689.47;3147913;28;20128;-73
2023/01/20 03:52:54;;;;;;;4.07;0.80;;;;;;;12.13;63.32;98690.22;3135718;28;20052;-73
2023/01/20 03:54:32;;;;;;;1.40;0.40;;;;;;;12.15;62.99;98683.91;3144827;28;20063;-73
2023/01/20 03:56:12;;;;;;;1.45;0.80;;;;;;;12.13;63.19;98679.78;3148856;28;20067;-73
2023/01/20 03:57:51;;;;;;;1.40;0.43;;;;;;;12.03;63.29;98682.97;3148636;28;20530;-73
2023/01/20 03:59:24;;;;;;;1.38;0.40;;;;;;;11.99;63.85;98676.31;3148950;28;20067;-73
2023/01/20 04:00:57;;;;;;;3.58;0.50;;;;;;;11.92;64.20;98669.00;3144723;28;20585;-73
2023/01/20 04:02:30;;;;;;;3.08;0.35;;;;;;;11.90;64.15;98666.53;3150049;28;20056;-73
2023/01/20 04:04:05;;;;;;;5.63;0.52;;;;;;;11.89;64.60;98667.47;3149668;28;20048;-73
2023/01/20 04:05:40;;;;;;;1.20;0.45;;;;;;;11.92;64.13;98671.63;3152488;28;20560;-73
2023/01/20 04:07:18;;;;;;;3.67;0.50;;;;;;;11.93;64.28;98684.56;3149138;28;20150;-74
2023/01/20 04:08:55;;;;;;;3.85;0.43;;;;;;;11.92;64.13;98685.53;3149689;28;20047;-73
2023/01/20 04:10:28;;;;;;;3.90;0.52;;;;;;;11.91;63.93;98694.25;3148740;28;20062;-74
2023/01/20 04:12:00;;;;;;;;;;;;;;;11.84;64.07;98690.38;3149113;28;20052;-73
2023/01/20 04:13:32;;;;;;;1.92;0.40;;;;;;;11.79;64.25;98688.06;3149889;28;20309;-73
2023/01/20 04:15:06;;;;;;;2.58;0.40;;;;;;;11.77;64.68;98695.19;3148571;28;20237;-73
2023/01/20 04:16:39;;;;;;;4.03;0.63;;;;;;;11.76;64.65;98690.06;3148256;28;20044;-73
2023/01/20 04:18:14;;;;;;;1.77;0.43;;;;;;;11.83;64.13;98701.75;3149495;28;20441;-73
2023/01/20 04:19:46;;;;;;;4.45;0.50;;;;;;;11.85;64.44;98699.91;3149393;28;20122;-73
2023/01/20 04:21:24;;;;;;;3.15;0.50;;;;;;;11.89;64.09;98683.13;3148781;28;20837;-73
2023/01/20 04:22:58;;;;;;;0.82;0.35;;;;;;;11.92;64.21;98672.47;3149039;28;20052;-71
2023/01/20 04:24:37;;;;;;;1.15;0.35;;;;;;;11.96;64.00;98657.44;3148508;28;20078;-73
2023/01/20 04:26:08;;;;;;;2.05;0.40;;;;;;;11.95;64.05;98668.78;3150900;28;20565;-71
2023/01/20 04:27:40;;;;;;;1.02;0.40;;;;;;;11.94;63.73;98659.31;3149740;28;20131;-71
2023/01/20 04:29:12;;;;;;;1.25;0.50;;;;;;;11.91;64.01;98636.88;3148077;28;20052;-72
2023/01/20 04:30:44;;;;;;;1.13;0.52;;;;;;;11.86;63.97;98623.34;3149245;28;20056;-72
2023/01/20 04:32:16;;;;;;;2.28;0.57;;;;;;;11.81;64.37;98626.22;3149310;28;20056;-71
2023/01/20 04:33:48;;;;;;;2.47;0.60;;;;;;;11.81;64.57;98630.59;3147956;28;20105;-72
2023/01/20 04:35:20;;;;;;;5.45;0.60;;;;;;;11.79;64.65;98624.66;3148545;28;20316;-72
2023/01/20 04:36:52;;;;;;;1.80;0.57;;;;;;;11.76;64.63;98630.06;3148704;28;20156;-73
2023/01/20 04:38:24;;;;;;;2.75;0.65;;;;;;;11.73;64.76;98625.91;3149082;28;20091;-73
2023/01/20 04:39:58;;;;;;;3.58;1.27;;;;;;;11.75;64.66;98621.41;3148963;28;20066;-74
2023/01/20 04:41:30;;;;;;;4.10;1.00;;;;;;;11.77;64.65;98627.38;3148465;28;20052;-73
2023/01/20 04:43:01;;;;;;;5.05;1.45;;;;;;;11.80;64.45;98632.38;3148450;28;20168;-73
2023/01/20 04:44:33;;;;;;;6.50;1.10;;;;;;;11.80;64.06;98631.53;3148729;28;20056;-71
2023/01/20 04:46:05;;;;;;;4.30;0.80;;;;;;;11.79;64.07;98638.53;3148363;28;20079;-73
2023/01/20 04:47:37;;;;;;;2.00;0.70;;;;;;;11.80;63.97;98639.34;3149150;28;20103;-72
2023/01/20 04:49:10;;;;;;;2.97;0.77;;;;;;;11.80;64.22;98642.81;3147451;28;20052;-73
2023/01/20 04:50:43;;;;;;;4.60;2.42;;;;;;;11.71;64.25;98640.84;3148677;28;20052;-75
2023/01/20 04:52:14;;;;;;;3.78;1.80;;;;;;;11.75;64.25;98651.91;3141948;28;20210;-74
2023/01/20 04:53:46;;;;;;;3.33;1.88;;;;;;;11.75;64.13;98644.91;3148270;28;20047;-74
2023/01/20 04:55:19;;;;;;;5.35;2.47;;;;;;;11.76;64.48;98623.09;3148294;28;20421;-75
2023/01/20 04:56:51;;;;;;;;;;;;;;;11.72;64.08;98613.81;3149100;28;20162;-72
2023/01/20 04:58:23;;;;;;;3.65;0.90;;;;;;;11.70;64.38;98600.03;3148688;28;19924;-73
2023/01/20 04:59:55;;;;;;;3.75;0.80;;;;;;;11.70;64.36;98601.81;3148114;28;20113;-73
2023/01/20 05:01:27;;;;;;;2.08;0.80;;;;;;;11.69;64.45;98618.41;3148329;28;20063;-73
2023/01/20 05:02:59;;;;;;;1.63;0.70;;;;;;;11.67;64.35;98602.03;3148948;28;20680;-73
2023/01/20 05:04:31;;;;;;;4.20;0.75;;;;;;;11.64;64.64;98586.59;3148229;28;20120;-75
2023/01/20 05:06:05;;;;;;;3.50;1.15;;;;;;;11.62;64.42;98571.03;3148063;28;20056;-73
2023/01/20 05:07:36;;;;;;;7.90;1.75;;;;;;;11.64;64.53;98573.56;3147510;28;20191;-72
2023/01/20 05:09:09;;;;;;;4.10;1.48;;;;;;;11.66;64.30;98587.31;3148106;28;20432;-74
2023/01/20 05:10:43;;;;;;;2.22;0.90;;;;;;;11.68;64.43;98582.81;3148850;28;20139;-72
2023/01/20 05:12:15;;;;;;;5.70;0.90;;;;;;;11.69;64.16;98580.13;3147488;28;20086;-70
2023/01/20 05:13:47;;;;;;;3.85;1.23;;;;;;;11.70;64.17;98571.34;3147648;28;20043;-70
2023/01/20 05:15:19;;;;;;;2.72;1.20;;;;;;;11.71;64.41;98574.78;3147107;28;20063;-71
2023/01/20 05:16:51;;;;;;;4.53;1.45;;;;;;;11.72;64.24;98577.31;3147341;28;20116;-71
2023/01/20 05:18:23;;;;;;;2.45;1.40;;;;;;;11.72;64.37;98569.47;3147709;28;20239;-70
2023/01/20 05:19:54;;;;;;;5.88;1.40;;;;;;;11.72;64.38;98574.69;3144151;28;20052;-71
2023/01/20 05:21:26;;;;;;;3.97;1.90;;;;;;;11.73;63.95;98592.00;3145880;28;20055;-73
2023/01/20 05:22:58;;;;;;;5.50;2.03;;;;;;;11.71;64.38;98600.88;3147494;28;20500;-72
2023/01/20 05:24:30;;;;;;;8.73;2.40;;;;;;;11.70;64.13;98591.38;3140672;28;20051;-70
2023/01/20 05:26:04;;;;;;;9.23;2.15;;;;;;;11.68;64.27;98577.59;3146692;28;20070;-72
2023/01/20 05:27:36;;;;;;;8.73;1.77;;;;;;;11.67;64.26;98570.72;3153903;28;20223;-69
2023/01/20 05:29:09;;;;;;;10.90;2.83;;;;;;;11.63;64.54;98570.13;3147280;28;20077;-71
2023/01/20 05:30:41;;;;;;;8.48;3.65;;;;;;;11.62;64.58;98563.22;3147760;28;20314;-69
2023/01/20 05:32:13;;;;;;;12.38;3.80;;;;;;;11.58;64.35;98557.38;3148904;28;20070;-73
2023/01/20 05:33:45;;;;;;;17.52;3.67;;;;;;;11.58;64.34;98560.00;3147148;28;20078;-72
2023/01/20 05:35:17;;;;;;;25.65;3.75;;;;;;;11.57;64.53;98555.72;3147033;28;20051;-70
2023/01/20 05:36:52;;;;;;;30.65;15.45;;;;;;;11.57;64.78;98553.13;3136438;28;20525;-71
2023/01/20 05:38:24;;;;;;;60.72;30.15;;;;;;;11.58;64.89;98546.13;3141897;28;20151;-70
2023/01/20 05:39:56;;;;;;;14.82;6.70;;;;;;;11.56;65.03;98527.97;3135954;28;20040;-72
2023/01/20 05:41:29;;;;;;;12.43;4.38;;;;;;;11.55;64.69;98521.09;3146043;28;20298;-73
2023/01/20 05:43:01;;;;;;;10.85;3.50;;;;;;;11.55;64.66;98521.09;3147856;28;20494;-74
2023/01/20 05:44:34;;;;;;;15.90;5.50;;;;;;;11.52;64.96;98529.13;3147676;28;20493;-74
2023/01/20 05:46:07;;;;;;;13.93;4.47;;;;;;;11.50;64.83;98531.00;3147366;28;20171;-71
2023/01/20 05:47:39;;;;;;;9.90;3.42;;;;;;;11.51;64.99;98518.81;3147457;28;20052;-73
2023/01/20 05:49:10;;;;;;;11.43;3.47;;;;;;;11.50;64.95;98512.75;3141001;28;20048;-74
2023/01/20 05:50:42;;;;;;;10.68;4.40;;;;;;;11.44;65.11;98502.75;3147237;28;20059;-75
2023/01/20 05:52:14;;;;;;;12.13;4.65;;;;;;;11.49;65.27;98524.13;3139895;28;20048;-74
2023/01/20 05:53:46;;;;;;;7.80;3.90;;;;;;;11.51;65.23;98526.66;3142206;28;20208;-70
2023/01/20 05:55:19;;;;;;;10.40;3.80;;;;;;;11.48;64.97;98530.28;3134784;28;20457;-72
2023/01/20 05:56:52;;;;;;;14.98;5.60;;;;;;;11.48;65.23;98532.06;3138432;28;20569;-72
2023/01/20 05:58:24;;;;;;;;;;;;;;;11.45;64.64;98529.69;3147195;28;20044;-70
2023/01/20 05:59:56;;;;;;;17.42;5.90;;;;;;;11.42;64.98;98532.47;3146836;28;20468;-74
2023/01/20 06:01:28;;;;;;;16.40;6.35;;;;;;;11.44;65.23;98528.00;3147589;28;20142;-75
2023/01/20 06:03:00;;;;;;;16.00;9.63;;;;;;;11.45;65.03;98533.13;3147868;28;20488;-71
2023/01/20 06:04:32;;;;;;;24.48;9.77;;;;;;;11.48;65.25;98538.13;3152471;28;20055;-71
2023/01/20 06:06:06;;;;;;;22.95;9.18;;;;;;;11.49;65.07;98526.75;3157131;28;20509;-76
2023/01/20 06:07:38;;;;;;;17.67;6.97;;;;;;;11.51;65.23;98526.66;3156972;28;20162;-72
2023/01/20 06:09:10;;;;;;;14.38;5.70;;;;;;;11.51;65.01;98517.03;3157185;28;20047;-71
2023/01/20 06:10:41;;;;;;;17.10;7.13;;;;;;;11.53;65.28;98516.91;3157043;28;20086;-73
2023/01/20 06:12:15;;;;;;;16.75;5.53;;;;;;;11.56;65.15;98511.50;3157203;28;20048;-73
2023/01/20 06:13:46;;;;;;;;;;;;;;;11.51;65.02;98498.78;3157390;28;20044;-74
2023/01/20 06:15:19;;;;;;;18.48;6.10;;;;;;;11.51;64.95;98488.38;3156714;28;19935;-74
2023/01/20 06:16:50;;;;;;;18.95;6.28;;;;;;;11.55;65.17;98481.16;3156895;28;20044;-74
2023/01/20 06:18:23;;;;;;;9.55;4.75;;;;;;;11.57;65.25;98479.28;3156310;28;20063;-76
2023/01/20 06:19:55;;;;;;;8.65;3.05;;;;;;;11.57;65.03;98471.47;3156779;28;20060;-71
2023/01/20 06:21:27;;;;;;;13.65;3.25;;;;;;;11.56;65.63;98473.22;3156881;28;20120;-71
2023/01/20 06:22:59;;;;;;;13.95;3.13;;;;;;;11.54;65.61;98482.94;3156646;28;20524;-71
2023/01/20 06:24:31;;;;;;;11.68;3.65;;;;;;;11.55;65.71;98476.78;3157456;28;20047;-74
2023/01/20 06:26:05;;;;;;;10.60;3.30;;;;;;;11.57;65.38;98472.28;3148202;28;20488;-75
2023/01/20 06:27:38;;;;;;;16.55;4.15;;;;;;;11.61;65.40;98489.38;3156679;28;20044;-75
2023/01/20 06:29:10;;;;;;;12.07;4.00;;;;;;;11.57;65.28;98502.75;3156497;28;20118;-76
2023/01/20 06:30:42;;;;;;;16.95;4.80;;;;;;;11.54;65.32;98506.41;3156959;28;20540;-76
2023/01/20 06:32:14;;;;;;;13.98;4.70;;;;;;;11.52;65.45;98492.63;3157023;28;20481;-75
2023/01/20 06:33:46;;;;;;;15.98;4.55;;;;;;;11.50;65.62;98493.66;3156017;28;20117;-75
2023/01/20 06:35:18;;;;;;;17.00;5.00;;;;;;;11.49;65.42;98485.03;3147739;28;20071;-76
2023/01/20 06:36:50;;;;;;;16.27;4.88;;;;;;;11.53;65.80;98476.03;3151006;28;20554;-76
2023/01/20 06:38:22;;;;;;;20.20;5.03;;;;;;;11.61;65.38;98498.97;3153530;28;20241;-74
2023/01/20 06:39:54;;;;;;;19.77;4.53;;;;;;;11.65;65.23;98510.00;3149330;28;20525;-75
2023/01/20 06:41:26;;;;;;;23.52;4.68;;;;;;;11.71;65.05;98514.81;3153023;28;20516;-74
2023/01/20 06:42:59;;;;;;;13.25;4.70;;;;;;;11.73;65.25;98521.56;3157012;28;20044;-74
2023/01/20 06:44:32;;;;;;;18.65;3.97;;;;;;;11.76;64.96;98520.53;3152857;28;20106;-75
2023/01/20 06:46:06;;;;;;;12.27;4.18;;;;;;;11.78;64.79;98526.50;3156630;28;20052;-75
2023/01/20 06:47:38;;;;;;;17.00;4.75;;;;;;;11.81;65.13;98521.88;3157219;28;20051;-76
2023/01/20 06:49:10;;;;;;;16.13;5.10;;;;;;;11.86;64.98;98521.59;3156864;28;20052;-77
2023/01/20 06:50:42;;;;;;;17.05;5.25;;;;;;;11.89;64.73;98505.72;3156731;28;20483;-77
2023/01/20 06:52:13;;;;;;;22.13;5.53;;;;;;;11.96;64.43;98513.94;3162543;28;20116;-76
2023/01/20 06:53:47;;;;;;;18.67;5.70;;;;;;;12.00;64.29;98510.16;3156739;28;20070;-76
2023/01/20 06:55:18;;;;;;;12.88;4.88;;;;;;;12.03;64.20;98513.38;3156966;28;20501;-72
2023/01/20 06:56:50;;;;;;;16.63;4.47;;;;;;;12.07;64.45;98508.81;3156399;28;20169;-72
2023/01/20 06:58:24;;;;;;;14.55;3.90;;;;;;;12.05;64.24;98492.41;3156648;28;20055;-70
2023/01/20 06:59:57;;;;;;;13.60;3.95;;;;;;;12.05;64.12;98501.06;3156996;28;20147;-71
2023/01/20 07:01:31;;;;;;;14.07;5.18;;;;;;;12.07;64.02;98490.53;3157012;28;20148;-70
2023/01/20 07:03:02;;;;;;;14.30;4.70;;;;;;;12.11;63.87;98497.19;3144905;28;20057;-71
2023/01/20 07:04:34;;;;;;;14.80;4.93;;;;;;;12.12;64.04;98488.41;3155670;28;20148;-72
2023/01/20 07:06:15;;;;;;;19.60;4.35;;;;;;;12.15;63.83;98476.91;3155766;28;20063;-73
2023/01/20 07:07:47;;;;;;;15.80;4.22;;;;;;;12.15;63.70;98482.13;3155631;28;20139;-69
2023/01/20 07:09:19;;;;;;;18.08;4.65;;;;;;;12.14;63.68;98476.09;3143473;28;20506;-73
2023/01/20 07:10:51;;;;;;;105.68;50.92;;;;;;;12.13;63.57;98478.81;3134408;28;20567;-74
2023/01/20 07:12:23;;;;;;;84.63;43.65;;;;;;;12.15;63.67;98469.91;3134233;28;20056;-77
2023/01/20 07:13:57;;;;;;;36.15;16.77;;;;;;;12.18;63.66;98471.47;3146724;28;20059;-78
2023/01/20 07:15:29;;;;;;;23.80;9.25;;;;;;;12.19;63.53;98473.16;3147077;28;20588;-74
2023/01/20 07:17:01;;;;;;;12.55;4.32;;;;;;;12.22;63.44;98468.53;3134505;28;20490;-75
2023/01/20 07:18:52;;;;;;;16.55;5.13;;;;;;;12.26;63.43;98479.56;3139948;28;20547;-72
2023/01/20 07:20:24;;;;;;;30.90;13.40;;;;;;;12.23;63.34;98448.50;3141799;28;20048;-74
2023/01/20 07:21:57;;;;;;;18.38;8.05;;;;;;;12.29;63.17;98455.84;3142041;28;20060;-74